sensor_id;sensor_type;location;lat;lon;timestamp;pressure;altitude;pressure_sealevel;temperature;humidity
12951;BME280;6540;50.858;7.232;2023-02-12T00:01:14;51866.66;;;-142.34;29.29
12951;BME280;6540;50.858;7.232;2023-02-12T00:03:40;51876.72;;;-142.34;29.96
12951;BME280;6540;50.858;7.232;2023-02-12T00:06:07;51876.72;;;-142.34;29.68
12951;BME280;6540;50.858;7.232;2023-02-12T00:08:33;51898.94;;;-142.34;29.44
12951;BME280;6540;50.858;7.232;2023-02-12T00:10:58;51834.38;;;-142.34;29.69
12951;BME280;6540;50.858;7.232;2023-02-12T00:13:24;51894.88;;;-142.34;29.53
12951;BME280;6540;50.858;7.232;2023-02-12T00:15:49;51886.81;;;-142.34;29.83
12951;BME280;6540;50.858;7.232;2023-02-12T00:18:14;51882.78;;;-142.34;29.79
12951;BME280;6540;50.858;7.232;2023-02-12T00:20:40;51882.78;;;-142.34;29.41
12951;BME280;6540;50.858;7.232;2023-02-12T00:23:05;51866.66;;;-142.34;29.71
12951;BME280;6540;50.858;7.232;2023-02-12T00:25:32;51884.81;;;-142.34;29.55
12951;BME280;6540;50.858;7.232;2023-02-12T00:27:57;51888.84;;;-142.34;29.21
12951;BME280;6540;50.858;7.232;2023-02-12T00:30:23;51826.31;;;-142.34;29.53
12951;BME280;6540;50.858;7.232;2023-02-12T00:32:48;51846.47;;;-142.34;29.37
12951;BME280;6540;50.858;7.232;2023-02-12T00:35:13;51872.69;;;-142.34;29.42
12951;BME280;6540;50.858;7.232;2023-02-12T00:37:39;51862.63;;;-142.34;29.56
12951;BME280;6540;50.858;7.232;2023-02-12T00:40:05;51858.56;;;-142.34;29.98
12951;BME280;6540;50.858;7.232;2023-02-12T00:42:31;51830.34;;;-142.34;29.68
12951;BME280;6540;50.858;7.232;2023-02-12T00:44:56;51892.88;;;-142.34;29.86
12951;BME280;6540;50.858;7.232;2023-02-12T00:47:21;51882.78;;;-142.34;29.46
12951;BME280;6540;50.858;7.232;2023-02-12T00:49:47;51868.66;;;-142.34;29.61
12951;BME280;6540;50.858;7.232;2023-02-12T00:52:12;51886.81;;;-142.34;30.12
12951;BME280;6540;50.858;7.232;2023-02-12T00:54:38;51878.75;;;-142.34;30.54
12951;BME280;6540;50.858;7.232;2023-02-12T00:57:03;51858.56;;;-142.34;30.25
12951;BME280;6540;50.858;7.232;2023-02-12T00:59:29;51904.97;;;-142.34;29.69
12951;BME280;6540;50.858;7.232;2023-02-12T01:01:54;51878.75;;;-142.34;29.68
12951;BME280;6540;50.858;7.232;2023-02-12T01:04:20;51880.78;;;-142.34;29.24
12951;BME280;6540;50.858;7.232;2023-02-12T01:06:46;51872.69;;;-142.34;29.57
12951;BME280;6540;50.858;7.232;2023-02-12T01:09:12;51892.88;;;-142.34;29.26
12951;BME280;6540;50.858;7.232;2023-02-12T01:11:38;51826.31;;;-142.34;29.39
12951;BME280;6540;50.858;7.232;2023-02-12T01:14:04;51866.66;;;-142.34;29.34
12951;BME280;6540;50.858;7.232;2023-02-12T01:16:30;51870.69;;;-142.34;29.24
12951;BME280;6540;50.858;7.232;2023-02-12T01:18:58;51878.75;;;-142.34;29.33
12951;BME280;6540;50.858;7.232;2023-02-12T01:21:26;51842.44;;;-142.34;29.39
12951;BME280;6540;50.858;7.232;2023-02-12T01:23:52;51911.03;;;-142.34;29.68
12951;BME280;6540;50.858;7.232;2023-02-12T01:26:18;51842.44;;;-142.34;29.63
12951;BME280;6540;50.858;7.232;2023-02-12T01:28:49;51872.69;;;-142.34;29.28
12951;BME280;6540;50.858;7.232;2023-02-12T01:31:16;51860.59;;;-142.34;29.48
12951;BME280;6540;50.858;7.232;2023-02-12T01:33:43;51878.75;;;-142.34;29.97
12951;BME280;6540;50.858;7.232;2023-02-12T01:36:11;51878.75;;;-142.34;29.93
12951;BME280;6540;50.858;7.232;2023-02-12T01:38:36;51862.63;;;-142.34;29.51
12951;BME280;6540;50.858;7.232;2023-02-12T01:41:10;51890.84;;;-142.34;29.28
12951;BME280;6540;50.858;7.232;2023-02-12T01:43:36;51862.63;;;-142.34;29.47
12951;BME280;6540;50.858;7.232;2023-02-12T01:46:03;51850.50;;;-142.34;29.32
12951;BME280;6540;50.858;7.232;2023-02-12T01:48:32;51858.56;;;-142.34;29.83
12951;BME280;6540;50.858;7.232;2023-02-12T01:50:59;51862.63;;;-142.34;29.87
12951;BME280;6540;50.858;7.232;2023-02-12T01:53:30;51876.72;;;-142.34;29.69
12951;BME280;6540;50.858;7.232;2023-02-12T01:55:58;51884.81;;;-142.34;29.78
12951;BME280;6540;50.858;7.232;2023-02-12T01:58:25;51860.59;;;-142.34;30.32
12951;BME280;6540;50.858;7.232;2023-02-12T02:00:52;51862.63;;;-142.34;29.87
12951;BME280;6540;50.858;7.232;2023-02-12T02:03:17;51880.78;;;-142.34;30.09
12951;BME280;6540;50.858;7.232;2023-02-12T02:06:00;51876.72;;;-142.34;29.78
12951;BME280;6540;50.858;7.232;2023-02-12T02:08:28;51864.63;;;-142.34;30.00
12951;BME280;6540;50.858;7.232;2023-02-12T02:10:53;51854.53;;;-142.34;29.82
12951;BME280;6540;50.858;7.232;2023-02-12T02:13:19;51856.56;;;-142.34;29.95
12951;BME280;6540;50.858;7.232;2023-02-12T02:16:17;51866.66;;;-142.34;29.51
12951;BME280;6540;50.858;7.232;2023-02-12T02:18:55;51870.69;;;-142.34;29.09
12951;BME280;6540;50.858;7.232;2023-02-12T02:32:17;51886.81;;;-142.34;29.22
12951;BME280;6540;50.858;7.232;2023-02-12T02:34:59;51864.63;;;-142.34;29.80
12951;BME280;6540;50.858;7.232;2023-02-12T02:37:32;51868.66;;;-142.34;29.58
12951;BME280;6540;50.858;7.232;2023-02-12T02:42:58;51866.66;;;-142.34;30.30
12951;BME280;6540;50.858;7.232;2023-02-12T02:45:30;51888.84;;;-142.34;29.58
12951;BME280;6540;50.858;7.232;2023-02-12T02:48:13;51862.63;;;-142.34;29.67
12951;BME280;6540;50.858;7.232;2023-02-12T02:50:46;51870.69;;;-142.34;29.85
12951;BME280;6540;50.858;7.232;2023-02-12T02:53:18;51854.53;;;-142.34;29.74
12951;BME280;6540;50.858;7.232;2023-02-12T02:55:49;51862.63;;;-142.34;29.36
12951;BME280;6540;50.858;7.232;2023-02-12T02:58:20;51882.78;;;-142.34;29.46
12951;BME280;6540;50.858;7.232;2023-02-12T03:03:24;51868.66;;;-142.34;29.63
12951;BME280;6540;50.858;7.232;2023-02-12T03:05:54;51874.72;;;-142.34;29.43
12951;BME280;6540;50.858;7.232;2023-02-12T03:08:25;51858.56;;;-142.34;29.22
12951;BME280;6540;50.858;7.232;2023-02-12T03:10:56;51896.91;;;-142.34;29.75
12951;BME280;6540;50.858;7.232;2023-02-12T03:13:29;51854.53;;;-142.34;29.56
12951;BME280;6540;50.858;7.232;2023-02-12T03:16:02;51874.72;;;-142.34;29.67
12951;BME280;6540;50.858;7.232;2023-02-12T03:18:35;51876.72;;;-142.34;29.04
12951;BME280;6540;50.858;7.232;2023-02-12T03:21:10;51832.34;;;-142.34;29.16
12951;BME280;6540;50.858;7.232;2023-02-12T03:23:41;51870.69;;;-142.34;29.23
12951;BME280;6540;50.858;7.232;2023-02-12T03:26:22;51862.63;;;-142.34;29.02
12951;BME280;6540;50.858;7.232;2023-02-12T03:28:50;51864.63;;;-142.34;29.29
12951;BME280;6540;50.858;7.232;2023-02-12T03:31:18;51866.66;;;-142.34;29.26
12951;BME280;6540;50.858;7.232;2023-02-12T03:39:34;51870.69;;;-142.34;29.59
12951;BME280;6540;50.858;7.232;2023-02-12T03:45:06;51850.50;;;-142.34;28.98
12951;BME280;6540;50.858;7.232;2023-02-12T03:47:48;51844.47;;;-142.34;29.23
12951;BME280;6540;50.858;7.232;2023-02-12T03:50:34;51876.72;;;-142.34;29.40
12951;BME280;6540;50.858;7.232;2023-02-12T03:53:03;51846.47;;;-142.34;29.57
12951;BME280;6540;50.858;7.232;2023-02-12T03:55:31;51866.66;;;-142.34;29.02
12951;BME280;6540;50.858;7.232;2023-02-12T03:58:00;51880.78;;;-142.34;29.58
12951;BME280;6540;50.858;7.232;2023-02-12T04:00:27;51848.50;;;-142.34;29.66
12951;BME280;6540;50.858;7.232;2023-02-12T04:02:53;51846.47;;;-142.34;29.17
12951;BME280;6540;50.858;7.232;2023-02-12T04:05:26;51888.84;;;-142.34;29.32
12951;BME280;6540;50.858;7.232;2023-02-12T04:07:53;51872.69;;;-142.34;29.17
12951;BME280;6540;50.858;7.232;2023-02-12T04:10:48;51854.53;;;-142.34;29.28
12951;BME280;6540;50.858;7.232;2023-02-12T04:13:18;51850.50;;;-142.34;29.68
12951;BME280;6540;50.858;7.232;2023-02-12T04:16:19;51878.75;;;-142.34;28.83
12951;BME280;6540;50.858;7.232;2023-02-12T04:18:47;51858.56;;;-142.34;29.70
12951;BME280;6540;50.858;7.232;2023-02-12T04:21:42;51864.63;;;-142.34;29.53
12951;BME280;6540;50.858;7.232;2023-02-12T04:27:01;51866.66;;;-142.34;29.58
12951;BME280;6540;50.858;7.232;2023-02-12T04:29:47;51858.56;;;-142.34;29.59
12951;BME280;6540;50.858;7.232;2023-02-12T04:32:39;51858.56;;;-142.34;28.83
12951;BME280;6540;50.858;7.232;2023-02-12T04:35:25;51890.84;;;-142.34;29.43
12951;BME280;6540;50.858;7.232;2023-02-12T04:38:26;51860.59;;;-142.34;29.84
12951;BME280;6540;50.858;7.232;2023-02-12T04:40:44;51846.47;;;-142.34;29.29
12951;BME280;6540;50.858;7.232;2023-02-12T04:43:10;51874.72;;;-142.34;30.09
12951;BME280;6540;50.858;7.232;2023-02-12T04:45:36;51882.78;;;-142.34;29.87
12951;BME280;6540;50.858;7.232;2023-02-12T04:48:02;51878.75;;;-142.34;30.14
12951;BME280;6540;50.858;7.232;2023-02-12T04:50:37;51886.81;;;-142.34;29.26
12951;BME280;6540;50.858;7.232;2023-02-12T04:53:03;51842.44;;;-142.34;29.32
12951;BME280;6540;50.858;7.232;2023-02-12T04:55:28;51894.88;;;-142.34;29.19
12951;BME280;6540;50.858;7.232;2023-02-12T04:57:54;51882.78;;;-142.34;29.26
12951;BME280;6540;50.858;7.232;2023-02-12T05:00:19;51882.78;;;-142.34;30.04
12951;BME280;6540;50.858;7.232;2023-02-12T05:02:45;51876.72;;;-142.34;30.98
12951;BME280;6540;50.858;7.232;2023-02-12T05:05:10;51862.63;;;-142.34;30.27
12951;BME280;6540;50.858;7.232;2023-02-12T05:07:35;51886.81;;;-142.34;29.92
12951;BME280;6540;50.858;7.232;2023-02-12T05:10:01;51925.16;;;-142.34;29.60
12951;BME280;6540;50.858;7.232;2023-02-12T05:12:27;51856.56;;;-142.34;29.43
12951;BME280;6540;50.858;7.232;2023-02-12T05:14:52;51904.97;;;-142.34;30.04
12951;BME280;6540;50.858;7.232;2023-02-12T05:17:21;51854.53;;;-142.34;29.82
12951;BME280;6540;50.858;7.232;2023-02-12T05:19:47;51884.81;;;-142.34;30.04
12951;BME280;6540;50.858;7.232;2023-02-12T05:22:12;51902.97;;;-142.34;30.21
12951;BME280;6540;50.858;7.232;2023-02-12T05:24:37;51898.94;;;-142.34;30.14
12951;BME280;6540;50.858;7.232;2023-02-12T05:27:03;51919.09;;;-142.34;30.18
12951;BME280;6540;50.858;7.232;2023-02-12T05:29:28;51878.75;;;-142.34;29.41
12951;BME280;6540;50.858;7.232;2023-02-12T05:31:53;51894.88;;;-142.34;29.95
12951;BME280;6540;50.858;7.232;2023-02-12T05:34:19;51846.47;;;-142.34;29.95
12951;BME280;6540;50.858;7.232;2023-02-12T05:36:44;51870.69;;;-142.34;29.76
12951;BME280;6540;50.858;7.232;2023-02-12T05:39:09;51902.97;;;-142.34;29.53
12951;BME280;6540;50.858;7.232;2023-02-12T05:41:35;51874.72;;;-142.34;29.65
12951;BME280;6540;50.858;7.232;2023-02-12T05:44:04;51898.94;;;-142.34;29.37
12951;BME280;6540;50.858;7.232;2023-02-12T05:46:29;51882.78;;;-142.34;29.38
12951;BME280;6540;50.858;7.232;2023-02-12T05:48:55;51884.81;;;-142.34;29.50
12951;BME280;6540;50.858;7.232;2023-02-12T05:51:22;51864.63;;;-142.34;29.26
12951;BME280;6540;50.858;7.232;2023-02-12T05:53:49;51874.72;;;-142.34;29.46
12951;BME280;6540;50.858;7.232;2023-02-12T05:56:23;51874.72;;;-142.34;31.33
12951;BME280;6540;50.858;7.232;2023-02-12T05:58:58;51878.75;;;-142.34;29.82
12951;BME280;6540;50.858;7.232;2023-02-12T06:01:44;51864.63;;;-142.34;29.44
12951;BME280;6540;50.858;7.232;2023-02-12T06:04:16;51878.75;;;-142.34;29.48
12951;BME280;6540;50.858;7.232;2023-02-12T06:06:42;51866.66;;;-142.34;29.70
12951;BME280;6540;50.858;7.232;2023-02-12T06:09:09;51904.97;;;-142.34;29.18
12951;BME280;6540;50.858;7.232;2023-02-12T06:11:35;51866.66;;;-142.34;29.47
12951;BME280;6540;50.858;7.232;2023-02-12T06:14:05;51874.72;;;-142.34;29.35
12951;BME280;6540;50.858;7.232;2023-02-12T06:16:32;51832.34;;;-142.34;29.92
12951;BME280;6540;50.858;7.232;2023-02-12T06:19:01;51886.81;;;-142.34;29.75
12951;BME280;6540;50.858;7.232;2023-02-12T06:21:27;51866.66;;;-142.34;29.73
12951;BME280;6540;50.858;7.232;2023-02-12T06:23:52;51876.72;;;-142.34;29.58
12951;BME280;6540;50.858;7.232;2023-02-12T06:26:21;51880.78;;;-142.34;29.74
12951;BME280;6540;50.858;7.232;2023-02-12T06:28:47;51888.84;;;-142.34;29.37
12951;BME280;6540;50.858;7.232;2023-02-12T06:31:30;51886.81;;;-142.34;29.18
12951;BME280;6540;50.858;7.232;2023-02-12T06:33:59;51894.88;;;-142.34;29.21
12951;BME280;6540;50.858;7.232;2023-02-12T06:36:26;51870.69;;;-142.34;29.38
12951;BME280;6540;50.858;7.232;2023-02-12T06:38:52;51874.72;;;-142.34;29.29
12951;BME280;6540;50.858;7.232;2023-02-12T06:41:18;51846.47;;;-142.34;30.00
12951;BME280;6540;50.858;7.232;2023-02-12T06:43:45;51896.91;;;-142.34;29.82
12951;BME280;6540;50.858;7.232;2023-02-12T06:46:11;51856.56;;;-142.34;30.09
12951;BME280;6540;50.858;7.232;2023-02-12T06:48:37;51874.72;;;-142.34;30.21
12951;BME280;6540;50.858;7.232;2023-02-12T06:51:11;51870.69;;;-142.34;30.41
12951;BME280;6540;50.858;7.232;2023-02-12T06:53:36;51876.72;;;-142.34;30.07
12951;BME280;6540;50.858;7.232;2023-02-12T06:56:04;51884.81;;;-142.34;30.07
12951;BME280;6540;50.858;7.232;2023-02-12T06:58:30;51860.59;;;-142.34;29.78
12951;BME280;6540;50.858;7.232;2023-02-12T07:00:56;51880.78;;;-142.34;29.73
12951;BME280;6540;50.858;7.232;2023-02-12T07:03:21;51882.78;;;-142.34;29.58
12951;BME280;6540;50.858;7.232;2023-02-12T07:05:47;51868.66;;;-142.34;29.63
12951;BME280;6540;50.858;7.232;2023-02-12T07:08:13;51876.72;;;-142.34;29.17
12951;BME280;6540;50.858;7.232;2023-02-12T07:10:38;51874.72;;;-142.34;29.51
12951;BME280;6540;50.858;7.232;2023-02-12T07:13:04;51874.72;;;-142.34;29.43
12951;BME280;6540;50.858;7.232;2023-02-12T07:15:29;51890.84;;;-142.34;30.14
12951;BME280;6540;50.858;7.232;2023-02-12T07:17:55;51896.91;;;-142.34;29.60
12951;BME280;6540;50.858;7.232;2023-02-12T07:20:20;51888.84;;;-142.34;29.41
12951;BME280;6540;50.858;7.232;2023-02-12T07:22:45;51868.66;;;-142.34;30.23
12951;BME280;6540;50.858;7.232;2023-02-12T07:25:11;51911.03;;;-142.34;29.61
12951;BME280;6540;50.858;7.232;2023-02-12T07:27:36;51868.66;;;-142.34;29.95
12951;BME280;6540;50.858;7.232;2023-02-12T07:30:04;51836.38;;;-142.34;29.63
12951;BME280;6540;50.858;7.232;2023-02-12T07:32:31;51886.81;;;-142.34;30.29
12951;BME280;6540;50.858;7.232;2023-02-12T07:34:57;51894.88;;;-142.34;30.08
12951;BME280;6540;50.858;7.232;2023-02-12T07:37:22;51866.66;;;-142.34;29.93
12951;BME280;6540;50.858;7.232;2023-02-12T07:39:48;51866.66;;;-142.34;29.06
12951;BME280;6540;50.858;7.232;2023-02-12T07:42:13;51911.03;;;-142.34;30.77
12951;BME280;6540;50.858;7.232;2023-02-12T07:44:39;51870.69;;;-142.34;30.24
12951;BME280;6540;50.858;7.232;2023-02-12T07:47:04;51886.81;;;-142.34;30.06
12951;BME280;6540;50.858;7.232;2023-02-12T07:49:30;51878.75;;;-142.34;30.27
12951;BME280;6540;50.858;7.232;2023-02-12T07:51:55;51868.66;;;-142.34;30.34
12951;BME280;6540;50.858;7.232;2023-02-12T07:54:21;51890.84;;;-142.34;32.97
12951;BME280;6540;50.858;7.232;2023-02-12T07:56:46;51870.69;;;-142.34;33.29
12951;BME280;6540;50.858;7.232;2023-02-12T07:59:14;51896.91;;;-142.34;32.05
12951;BME280;6540;50.858;7.232;2023-02-12T08:01:44;51878.75;;;-142.34;32.01
12951;BME280;6540;50.858;7.232;2023-02-12T08:04:13;51876.72;;;-142.34;31.52
12951;BME280;6540;50.858;7.232;2023-02-12T08:06:41;51894.88;;;-142.34;33.13
12951;BME280;6540;50.858;7.232;2023-02-12T08:09:10;51862.63;;;-142.34;32.20
12951;BME280;6540;50.858;7.232;2023-02-12T08:11:37;51886.81;;;-142.34;31.02
12951;BME280;6540;50.858;7.232;2023-02-12T08:14:03;51890.84;;;-142.34;31.48
12951;BME280;6540;50.858;7.232;2023-02-12T08:16:29;51880.78;;;-142.34;31.48
12951;BME280;6540;50.858;7.232;2023-02-12T08:18:57;51898.94;;;-142.34;31.79
12951;BME280;6540;50.858;7.232;2023-02-12T08:21:25;51886.81;;;-142.34;32.04
12951;BME280;6540;50.858;7.232;2023-02-12T08:23:52;51909.00;;;-142.34;31.89
12951;BME280;6540;50.858;7.232;2023-02-12T08:26:25;51900.94;;;-142.34;32.36
12951;BME280;6540;50.858;7.232;2023-02-12T08:29:07;51890.84;;;-142.34;31.05
12951;BME280;6540;50.858;7.232;2023-02-12T08:31:38;51850.50;;;-142.34;31.28
12951;BME280;6540;50.858;7.232;2023-02-12T08:34:04;51868.66;;;-142.34;31.85
12951;BME280;6540;50.858;7.232;2023-02-12T08:36:38;51882.78;;;-142.34;32.40
12951;BME280;6540;50.858;7.232;2023-02-12T08:39:05;51894.88;;;-142.34;32.66
12951;BME280;6540;50.858;7.232;2023-02-12T08:41:31;51911.03;;;-142.34;33.37
12951;BME280;6540;50.858;7.232;2023-02-12T08:43:58;51915.06;;;-142.34;32.54
12951;BME280;6540;50.858;7.232;2023-02-12T08:46:26;51894.88;;;-142.34;32.66
12951;BME280;6540;50.858;7.232;2023-02-12T08:48:53;51904.97;;;-142.34;32.50
12951;BME280;6540;50.858;7.232;2023-02-12T08:51:24;51917.06;;;-142.34;32.08
12951;BME280;6540;50.858;7.232;2023-02-12T08:53:54;51888.84;;;-142.34;31.89
12951;BME280;6540;50.858;7.232;2023-02-12T08:56:21;51909.00;;;-142.34;31.02
12951;BME280;6540;50.858;7.232;2023-02-12T08:58:47;51862.63;;;-142.34;30.25
12951;BME280;6540;50.858;7.232;2023-02-12T09:01:16;51886.81;;;-142.34;29.99
12951;BME280;6540;50.858;7.232;2023-02-12T09:03:42;51862.63;;;-142.34;30.40
12951;BME280;6540;50.858;7.232;2023-02-12T09:06:08;51888.84;;;-142.34;30.45
12951;BME280;6540;50.858;7.232;2023-02-12T09:08:35;51884.81;;;-142.34;31.52
12951;BME280;6540;50.858;7.232;2023-02-12T09:11:09;51874.72;;;-142.34;31.09
12951;BME280;6540;50.858;7.232;2023-02-12T09:13:35;51890.84;;;-142.34;31.45
12951;BME280;6540;50.858;7.232;2023-02-12T09:16:02;51911.03;;;-142.34;32.28
12951;BME280;6540;50.858;7.232;2023-02-12T09:18:29;51886.81;;;-142.34;30.50
12951;BME280;6540;50.858;7.232;2023-02-12T09:21:00;51870.69;;;-142.34;30.38
12951;BME280;6540;50.858;7.232;2023-02-12T09:23:25;51911.03;;;-142.34;31.86
12951;BME280;6540;50.858;7.232;2023-02-12T09:25:51;51870.69;;;-142.34;30.66
12951;BME280;6540;50.858;7.232;2023-02-12T09:28:16;51864.63;;;-142.34;31.74
12951;BME280;6540;50.858;7.232;2023-02-12T09:30:41;51882.78;;;-142.34;31.06
12951;BME280;6540;50.858;7.232;2023-02-12T09:33:09;51884.81;;;-142.34;31.82
12951;BME280;6540;50.858;7.232;2023-02-12T09:35:36;51880.78;;;-142.34;31.84
12951;BME280;6540;50.858;7.232;2023-02-12T09:38:03;51870.69;;;-142.34;31.28
12951;BME280;6540;50.858;7.232;2023-02-12T09:40:51;51854.53;;;-142.34;31.41
12951;BME280;6540;50.858;7.232;2023-02-12T09:46:18;51860.59;;;-142.34;29.79
12951;BME280;6540;50.858;7.232;2023-02-12T09:51:30;51830.34;;;-142.34;31.38
12951;BME280;6540;50.858;7.232;2023-02-12T09:54:03;51866.66;;;-142.34;29.68
12951;BME280;6540;50.858;7.232;2023-02-12T09:56:29;51860.59;;;-142.34;30.53
12951;BME280;6540;50.858;7.232;2023-02-12T09:58:59;51868.66;;;-142.34;30.38
12951;BME280;6540;50.858;7.232;2023-02-12T10:01:27;51852.53;;;-142.34;31.94
12951;BME280;6540;50.858;7.232;2023-02-12T10:03:53;51862.63;;;-142.34;30.84
12951;BME280;6540;50.858;7.232;2023-02-12T10:06:23;51810.16;;;-142.34;30.04
12951;BME280;6540;50.858;7.232;2023-02-12T10:22:16;51790.00;;;-142.34;28.48
12951;BME280;6540;50.858;7.232;2023-02-12T10:25:16;51792.00;;;-142.34;29.09
12951;BME280;6540;50.858;7.232;2023-02-12T10:27:49;51844.47;;;-142.34;29.98
12951;BME280;6540;50.858;7.232;2023-02-12T10:30:36;51832.34;;;-142.34;29.53
12951;BME280;6540;50.858;7.232;2023-02-12T10:33:09;51808.16;;;-142.34;29.26
12951;BME280;6540;50.858;7.232;2023-02-12T10:35:52;51794.03;;;-142.34;28.47
12951;BME280;6540;50.858;7.232;2023-02-12T10:38:27;51826.31;;;-142.34;29.45
12951;BME280;6540;50.858;7.232;2023-02-12T10:40:55;51830.34;;;-142.34;29.19
12951;BME280;6540;50.858;7.232;2023-02-12T10:43:22;51802.09;;;-142.34;29.19
12951;BME280;6540;50.858;7.232;2023-02-12T10:45:48;51860.59;;;-142.34;29.13
12951;BME280;6540;50.858;7.232;2023-02-12T10:48:19;51792.00;;;-142.34;29.02
12951;BME280;6540;50.858;7.232;2023-02-12T10:51:03;51826.31;;;-142.34;29.45
12951;BME280;6540;50.858;7.232;2023-02-12T10:53:36;51785.94;;;-142.34;29.58
12951;BME280;6540;50.858;7.232;2023-02-12T10:58:34;51830.34;;;-142.34;28.92
12951;BME280;6540;50.858;7.232;2023-02-12T11:01:00;51832.34;;;-142.34;30.02
12951;BME280;6540;50.858;7.232;2023-02-12T11:03:29;51814.19;;;-142.34;29.97
12951;BME280;6540;50.858;7.232;2023-02-12T11:06:10;51806.13;;;-142.34;29.84
12951;BME280;6540;50.858;7.232;2023-02-12T11:08:36;51818.22;;;-142.34;30.02
12951;BME280;6540;50.858;7.232;2023-02-12T11:11:27;51830.34;;;-142.34;30.23
12951;BME280;6540;50.858;7.232;2023-02-12T11:14:17;51814.19;;;-142.34;29.16
12951;BME280;6540;50.858;7.232;2023-02-12T11:16:55;51822.25;;;-142.34;28.75
12951;BME280;6540;50.858;7.232;2023-02-12T11:19:27;51822.25;;;-142.34;28.49
12951;BME280;6540;50.858;7.232;2023-02-12T11:22:07;51806.13;;;-142.34;27.66
12951;BME280;6540;50.858;7.232;2023-02-12T11:24:35;51804.13;;;-142.34;28.02
12951;BME280;6540;50.858;7.232;2023-02-12T11:29:39;51775.88;;;-142.34;27.74
12951;BME280;6540;50.858;7.232;2023-02-12T11:32:06;51785.94;;;-142.34;28.32
12951;BME280;6540;50.858;7.232;2023-02-12T11:34:33;51781.91;;;-142.34;28.85
12951;BME280;6540;50.858;7.232;2023-02-12T11:36:59;51798.06;;;-142.34;28.27
12951;BME280;6540;50.858;7.232;2023-02-12T11:39:34;51761.75;;;-142.34;28.11
12951;BME280;6540;50.858;7.232;2023-02-12T11:42:14;51826.31;;;-142.34;27.82
12951;BME280;6540;50.858;7.232;2023-02-12T11:44:43;51779.91;;;-142.34;28.27
12951;BME280;6540;50.858;7.232;2023-02-12T11:47:41;51824.28;;;-142.34;29.14
12951;BME280;6540;50.858;7.232;2023-02-12T11:50:21;51783.94;;;-142.34;28.58
12951;BME280;6540;50.858;7.232;2023-02-12T11:52:50;51783.94;;;-142.34;28.10
12951;BME280;6540;50.858;7.232;2023-02-12T11:55:22;51765.78;;;-142.34;28.07
12951;BME280;6540;50.858;7.232;2023-02-12T11:57:50;51759.72;;;-142.34;27.58
12951;BME280;6540;50.858;7.232;2023-02-12T12:00:35;51761.75;;;-142.34;27.20
12951;BME280;6540;50.858;7.232;2023-02-12T12:03:22;51806.13;;;-142.34;29.91
12951;BME280;6540;50.858;7.232;2023-02-12T12:05:51;51814.19;;;-142.34;28.84
12951;BME280;6540;50.858;7.232;2023-02-12T12:08:39;51765.78;;;-142.34;28.90
12951;BME280;6540;50.858;7.232;2023-02-12T12:11:14;51755.69;;;-142.34;28.61
12951;BME280;6540;50.858;7.232;2023-02-12T12:13:49;51745.59;;;-142.34;28.05
12951;BME280;6540;50.858;7.232;2023-02-12T12:16:33;51781.91;;;-142.34;27.46
12951;BME280;6540;50.858;7.232;2023-02-12T12:19:23;51757.72;;;-142.34;28.49
12951;BME280;6540;50.858;7.232;2023-02-12T12:45:02;51777.88;;;-142.34;28.50
12951;BME280;6540;50.858;7.232;2023-02-12T12:48:06;51759.72;;;-142.34;27.29
12951;BME280;6540;50.858;7.232;2023-02-12T12:53:41;51735.53;;;-142.34;27.68
12951;BME280;6540;50.858;7.232;2023-02-12T13:02:02;51785.94;;;-142.34;29.56
12951;BME280;6540;50.858;7.232;2023-02-12T13:12:37;51715.34;;;-142.34;27.88
12951;BME280;6540;50.858;7.232;2023-02-12T13:20:38;51792.00;;;-142.34;28.16
12951;BME280;6540;50.858;7.232;2023-02-12T13:23:19;51737.53;;;-142.34;27.71
12951;BME280;6540;50.858;7.232;2023-02-12T13:28:30;51785.94;;;-142.34;28.46
12951;BME280;6540;50.858;7.232;2023-02-12T13:30:58;51775.88;;;-142.34;28.12
12951;BME280;6540;50.858;7.232;2023-02-12T13:33:35;51796.03;;;-142.34;29.30
12951;BME280;6540;50.858;7.232;2023-02-12T13:36:05;51761.75;;;-142.34;27.99
12951;BME280;6540;50.858;7.232;2023-02-12T13:38:34;51773.84;;;-142.34;27.70
12951;BME280;6540;50.858;7.232;2023-02-12T13:41:07;51761.75;;;-142.34;29.09
12951;BME280;6540;50.858;7.232;2023-02-12T13:43:58;51794.03;;;-142.34;28.27
12951;BME280;6540;50.858;7.232;2023-02-12T13:46:38;51781.91;;;-142.34;28.17
12951;BME280;6540;50.858;7.232;2023-02-12T13:49:42;51790.00;;;-142.34;28.17
12951;BME280;6540;50.858;7.232;2023-02-12T13:52:27;51781.91;;;-142.34;28.41
12951;BME280;6540;50.858;7.232;2023-02-12T13:57:29;51783.94;;;-142.34;28.19
12951;BME280;6540;50.858;7.232;2023-02-12T13:59:57;51792.00;;;-142.34;28.75
12951;BME280;6540;50.858;7.232;2023-02-12T14:05:00;51814.19;;;-142.34;28.36
12951;BME280;6540;50.858;7.232;2023-02-12T14:10:21;51773.84;;;-142.34;27.41
12951;BME280;6540;50.858;7.232;2023-02-12T14:12:48;51749.66;;;-142.34;27.76
12951;BME280;6540;50.858;7.232;2023-02-12T14:15:41;51763.75;;;-142.34;27.30
12951;BME280;6540;50.858;7.232;2023-02-12T14:23:44;51771.84;;;-142.34;28.30
12951;BME280;6540;50.858;7.232;2023-02-12T14:26:16;51781.91;;;-142.34;29.26
12951;BME280;6540;50.858;7.232;2023-02-12T14:33:47;51761.75;;;-142.34;27.76
12951;BME280;6540;50.858;7.232;2023-02-12T14:39:07;51790.00;;;-142.34;29.41
12951;BME280;6540;50.858;7.232;2023-02-12T14:41:48;51792.00;;;-142.34;29.11
12951;BME280;6540;50.858;7.232;2023-02-12T14:46:51;51783.94;;;-142.34;27.81
12951;BME280;6540;50.858;7.232;2023-02-12T14:49:29;51753.69;;;-142.34;27.65
12951;BME280;6540;50.858;7.232;2023-02-12T14:54:48;51794.03;;;-142.34;27.54
12951;BME280;6540;50.858;7.232;2023-02-12T14:57:29;51773.84;;;-142.34;27.59
12951;BME280;6540;50.858;7.232;2023-02-12T15:00:05;51779.91;;;-142.34;27.91
12951;BME280;6540;50.858;7.232;2023-02-12T15:02:52;51765.78;;;-142.34;27.51
12951;BME280;6540;50.858;7.232;2023-02-12T15:05:35;51769.81;;;-142.34;27.39
12951;BME280;6540;50.858;7.232;2023-02-12T15:11:01;51733.50;;;-142.34;27.64
12951;BME280;6540;50.858;7.232;2023-02-12T15:13:33;51757.72;;;-142.34;28.34
12951;BME280;6540;50.858;7.232;2023-02-12T15:18:59;51783.94;;;-142.34;28.36
12951;BME280;6540;50.858;7.232;2023-02-12T15:21:31;51790.00;;;-142.34;27.59